WetterOnline ( https://www.wetteronline.ch )

Wetter aktuell Emden

Aktuelles Wetter: Emden (5m)

6-stündlich | Neueste Meldungen
Ortszeit Temperatur Wetter
Mo, 09.12. 1:00 6.4° C fast wolkenlos
So, 08.12. 19:00 7.9° C leicht bewölkt
So, 08.12. 13:00 10.0° C bewölkt
So, 08.12. 7:00 8.9° C leichter Regen
So, 08.12. 1:00 8.2° C bedeckt
Sa, 07.12. 19:00 8.9° C bedeckt
Sa, 07.12. 13:00 8.9° C Sprühregen
Sa, 07.12. 7:00 8.7° C bedeckt
Ortszeit Temperatur Wetter
Mo, 09.12. 3:00 6.4° C leicht bewölkt
Mo, 09.12. 2:50 6.4° C leicht bewölkt
Mo, 09.12. 2:40 6.3° C leicht bewölkt
Mo, 09.12. 2:30 6.4° C leicht bewölkt
Mo, 09.12. 2:20 6.4° C leicht bewölkt
Mo, 09.12. 2:10 6.3° C wolkenlos
Mo, 09.12. 2:00 6.3° C leicht bewölkt
Mo, 09.12. 1:30 6.3° C fast wolkenlos
Mo, 09.12. 1:00 6.4° C fast wolkenlos
Mo, 09.12. 0:30 6.4° C leicht bewölkt
Mo, 09.12. 0:00 6.6° C wolkig
Ortszeit Relative Feuchte Sichtweite
Mo, 09.12. 1:00 86% 30 km
So, 08.12. 19:00 80% 25 km
So, 08.12. 13:00 83% >70 km
So, 08.12. 7:00 78% 40 km
So, 08.12. 1:00 79% 50 km
Sa, 07.12. 19:00 88% 29 km
Sa, 07.12. 13:00 91% 5.0 km
Sa, 07.12. 7:00 92% 27 km
Ortszeit Relative Feuchte Sichtweite
Mo, 09.12. 3:00 82% 40 km
Mo, 09.12. 2:50 82% -
Mo, 09.12. 2:40 83% -
Mo, 09.12. 2:30 83% 35 km
Mo, 09.12. 2:20 83% -
Mo, 09.12. 2:10 83% -
Mo, 09.12. 2:00 85% 35 km
Mo, 09.12. 1:30 85% 35 km
Mo, 09.12. 1:00 86% 30 km
Mo, 09.12. 0:30 84% 40 km
Mo, 09.12. 0:00 81% 45 km
Ortszeit Niederschlagsmenge Niederschlagsart
Mo, 09.12. 1:00 2 l/m2 in 6 Std. Regen
So, 08.12. 19:00 4 l/m2 in 12 Std. Regen
So, 08.12. 13:00 3 l/m2 in 6 Std. Regen
So, 08.12. 7:00 0.1 l/m2 in 12 Std. Regen
So, 08.12. 1:00 0.0 l/m2 in 6 Std. -
Sa, 07.12. 19:00 0.2 l/m2 in 12 Std. Regen
Sa, 07.12. 13:00 0.1 l/m2 in 6 Std. Regen
Sa, 07.12. 7:00 5 l/m2 in 12 Std. Regen
Ortszeit Niederschlagsmenge Niederschlagsart
Mo, 09.12. 3:00 0.1 l/m2 in 1 Std. Regen
Mo, 09.12. 2:50 keine Meldung -
Mo, 09.12. 2:40 keine Meldung -
Mo, 09.12. 2:30 0.0 l/m2 in 1 Std. -
Mo, 09.12. 2:20 keine Meldung -
Mo, 09.12. 2:10 keine Meldung -
Mo, 09.12. 2:00 0.0 l/m2 in 1 Std. -
Mo, 09.12. 1:30 0.0 l/m2 in 1 Std. -
Mo, 09.12. 1:00 0.0 l/m2 in 1 Std. Regen
Mo, 09.12. 0:30 0.0 l/m2 in 1 Std. -
Mo, 09.12. 0:00 0.1 l/m2 in 1 Std. Regen
Ortszeit Stärke Spitze Richtung
km/h Bft. km/h Grad Sektor
Mo, 09.12. 1:00 19 3 54 210° SW
So, 08.12. 19:00 18 3 50 210° SW
So, 08.12. 13:00 24 4 65 240° SW
So, 08.12. 7:00 31 5 61 210° SW
So, 08.12. 1:00 24 4 39 200° S
Sa, 07.12. 19:00 17 3 33 240° SW
Sa, 07.12. 13:00 19 3 43 260° W
Sa, 07.12. 7:00 22 4 40 260° W
Ortszeit Stärke Spitze Richtung
km/h Bft. km/h Grad Sektor
Mo, 09.12. 3:00 25 4 40 220° SW
Mo, 09.12. 2:50 25 4 - 220° SW
Mo, 09.12. 2:40 22 4 - 220° SW
Mo, 09.12. 2:30 22 4 40 220° SW
Mo, 09.12. 2:20 22 4 - 220° SW
Mo, 09.12. 2:10 22 4 - 220° SW
Mo, 09.12. 2:00 24 4 35 210° SW
Mo, 09.12. 1:30 18 3 32 210° SW
Mo, 09.12. 1:00 19 3 33 210° SW
Mo, 09.12. 0:30 22 4 32 210° SW
Mo, 09.12. 0:00 22 4 43 220° SW
Ortszeit Untergrenze Bedeckung Gattung
total tief tief mittel hoch
Mo, 09.12. 1:00 960 m 1/8 1/8 - - -
So, 08.12. 19:00 1050 m 2/8 2/8 - - -
So, 08.12. 13:00 510 m 7/8 8/8 - - -
So, 08.12. 7:00 630 m 8/8 8/8 - - -
So, 08.12. 1:00 750 m 8/8 8/8 - - -
Sa, 07.12. 19:00 390 m 8/8 8/8 - - -
Sa, 07.12. 13:00 510 m 8/8 8/8 - - -
Sa, 07.12. 7:00 390 m 8/8 8/8 - - -
Ortszeit Bedeckungsgrad in Achtel und Wolkenuntergrenze
Mo, 09.12. 3:00 1(600m) 3(870m)
Mo, 09.12. 2:50 1(600m) 3(870m) 3(1350m)
Mo, 09.12. 2:40 1(600m) 4(840m) 4(1320m)
Mo, 09.12. 2:30 2(810m) 5(840m) 5(1380m)
Mo, 09.12. 2:20 2(810m)
Mo, 09.12. 2:10 keine Wolken
Mo, 09.12. 2:00 2(720m)
Mo, 09.12. 1:30 1(930m)
Mo, 09.12. 1:00 1(960m)
Mo, 09.12. 0:30 2(930m)
Mo, 09.12. 0:00 5(1080m) 6(1380m) 6(2100m)
Ortszeit Luftdruck NN (hPa) Tendenz (hPa in 3 Std.)
Mo, 09.12. 1:00 992 0,0
So, 08.12. 19:00 994 - 0,9
So, 08.12. 13:00 994 - 0,9
So, 08.12. 7:00 998 - 4,3
So, 08.12. 1:00 1006 - 3,0
Sa, 07.12. 19:00 1010 + 0,7
Sa, 07.12. 13:00 1009 + 1,4
Sa, 07.12. 7:00 1004 + 2,8
Ortszeit Luftdruck NN (hPa) Tendenz (hPa in 3 Std.)
Mo, 09.12. 3:00 992 - 0,3
Mo, 09.12. 2:50 992 keine Meldung
Mo, 09.12. 2:40 992 keine Meldung
Mo, 09.12. 2:30 992 0,0
Mo, 09.12. 2:20 992 keine Meldung
Mo, 09.12. 2:10 992 keine Meldung
Mo, 09.12. 2:00 992 - 0,1
Mo, 09.12. 1:30 992 0,0
Mo, 09.12. 1:00 992 0,0
Mo, 09.12. 0:30 992 - 0,5
Mo, 09.12. 0:00 992 - 1,1
Ortszeit Schneehöhe (cm)
Mo, 09.12. 1:00 0
So, 08.12. 19:00 0
So, 08.12. 13:00 0
So, 08.12. 7:00 0
So, 08.12. 1:00 0
Sa, 07.12. 19:00 0
Sa, 07.12. 13:00 0
Sa, 07.12. 7:00 0
Ortszeit Schneehöhe (cm)
Mo, 09.12. 3:00 0
Mo, 09.12. 2:50 0
Mo, 09.12. 2:40 0
Mo, 09.12. 2:30 0
Mo, 09.12. 2:20 0
Mo, 09.12. 2:10 0
Mo, 09.12. 2:00 0
Mo, 09.12. 1:30 0
Mo, 09.12. 1:00 0
Mo, 09.12. 0:30 0
Mo, 09.12. 0:00 0
Link zu dieser Seite / Seite empfehlen

Das Wetter in ...